Time;durP1;ratioP1;P1;durP2;ratioP2;P2;SDS_P1;SDS_P2;PMS_P1;PMS_P2;Temp;Humidity;BMP_temperature;BMP_pressure;BME280_temperature;BME280_humidity;BME280_pressure;Samples;Min_cycle;Max_cycle;Signal;HPM_P1;HPM_P2
2022/06/03 00:02:26;;;;;;;4.70;4.40;;;16.40;99.90;;;;;;5015496;28;20676;-64
2022/06/03 00:05:16;;;;;;;4.97;4.55;;;16.30;99.90;;;;;;5016593;28;20193;-64
2022/06/03 00:08:15;;;;;;;5.10;4.60;;;16.30;99.90;;;;;;5014472;28;20302;-64
2022/06/03 00:11:00;;;;;;;5.20;4.70;;;16.40;99.90;;;;;;5000487;28;20223;-64
2022/06/03 00:13:47;;;;;;;5.30;4.90;;;16.20;99.90;;;;;;5013545;28;20190;-64
2022/06/03 00:16:46;;;;;;;5.30;4.90;;;16.30;99.90;;;;;;5015374;28;20544;-64
2022/06/03 00:19:20;;;;;;;5.25;4.75;;;16.10;99.90;;;;;;5028398;28;20556;-64
2022/06/03 00:21:56;;;;;;;5.35;4.80;;;16.20;99.90;;;;;;5012295;28;20190;-65
2022/06/03 00:24:40;;;;;;;5.40;4.90;;;15.90;99.90;;;;;;5016437;28;20213;-68
2022/06/03 00:27:18;;;;;;;5.00;4.60;;;15.90;99.90;;;;;;5016429;28;20179;-64
2022/06/03 00:30:04;;;;;;;5.13;4.72;;;16.00;99.90;;;;;;5018242;28;20206;-67
2022/06/03 00:33:02;;;;;;;5.57;5.03;;;16.10;99.90;;;;;;5009402;28;20278;-64
2022/06/03 00:35:59;;;;;;;5.15;4.85;;;16.00;99.90;;;;;;5009214;28;20613;-64
2022/06/03 00:38:31;;;;;;;4.97;4.68;;;16.10;99.90;;;;;;5027609;28;20257;-64
2022/06/03 00:41:25;;;;;;;5.57;5.18;;;16.20;99.90;;;;;;5010653;28;20229;-67
2022/06/03 00:44:34;;;;;;;5.00;4.70;;;16.10;99.90;;;;;;5012628;28;20606;-64
2022/06/03 00:47:22;;;;;;;5.90;5.45;;;15.90;99.90;;;;;;5012744;28;20205;-64
2022/06/03 00:50:00;;;;;;;4.80;4.50;;;15.90;99.90;;;;;;5010104;28;20644;-64
2022/06/03 00:52:45;;;;;;;5.40;5.00;;;15.90;99.90;;;;;;5008759;28;20190;-64
2022/06/03 00:55:29;;;;;;;5.82;5.32;;;15.80;99.90;;;;;;5004332;28;20400;-63
2022/06/03 00:58:24;;;;;;;5.40;4.90;;;15.80;99.90;;;;;;5012029;28;20265;-63
2022/06/03 01:01:07;;;;;;;5.70;5.20;;;15.50;99.90;;;;;;5011304;28;20401;-64
2022/06/03 01:04:03;;;;;;;5.22;4.72;;;15.90;99.90;;;;;;5013597;28;20202;-63
2022/06/03 01:06:42;;;;;;;5.00;4.63;;;15.50;99.90;;;;;;5008287;28;20742;-63
2022/06/03 01:09:26;;;;;;;5.70;5.20;;;15.60;99.90;;;;;;5013073;28;20364;-63
2022/06/03 01:12:06;;;;;;;5.70;5.20;;;15.50;99.90;;;;;;5012854;28;20187;-63
2022/06/03 01:14:58;;;;;;;5.60;5.20;;;15.60;99.90;;;;;;5012513;28;20695;-66
2022/06/03 01:17:37;;;;;;;4.88;4.47;;;15.80;99.90;;;;;;5007360;28;20704;-64
2022/06/03 01:20:29;;;;;;;5.00;4.70;;;15.60;99.90;;;;;;5007931;28;20211;-63
2022/06/03 01:23:12;;;;;;;5.05;4.75;;;15.60;99.90;;;;;;5010944;28;20234;-63
2022/06/03 01:25:57;;;;;;;5.97;4.80;;;15.70;99.90;;;;;;5003183;28;20271;-66
2022/06/03 01:28:41;;;;;;;5.82;5.43;;;15.30;99.90;;;;;;5012362;28;20720;-65
2022/06/03 01:31:12;;;;;;;5.85;5.32;;;15.50;99.90;;;;;;5009837;28;20187;-64
2022/06/03 01:33:55;;;;;;;5.97;5.47;;;15.60;99.90;;;;;;4995273;28;20665;-63
2022/06/03 01:36:58;;;;;;;7.00;5.00;;;15.70;99.90;;;;;;5008084;28;20187;-63
2022/06/03 01:39:42;;;;;;;6.82;4.68;;;15.50;99.90;;;;;;5004101;28;20556;-64
2022/06/03 01:42:39;;;;;;;5.65;5.15;;;15.30;99.90;;;;;;5006911;28;20241;-64
2022/06/03 01:45:35;;;;;;;5.63;5.13;;;15.40;99.90;;;;;;5006465;28;20214;-63
2022/06/03 01:48:19;;;;;;;5.57;5.18;;;15.30;99.90;;;;;;5011796;28;20210;-63
2022/06/03 01:50:56;;;;;;;5.97;5.35;;;15.20;99.90;;;;;;5009377;28;20186;-63
2022/06/03 01:54:00;;;;;;;6.03;5.53;;;15.20;99.90;;;;;;5012342;28;20195;-63
2022/06/03 01:56:56;;;;;;;5.55;5.15;;;15.10;99.90;;;;;;5008401;28;20190;-64
2022/06/03 01:59:57;;;;;;;5.60;5.20;;;15.30;99.90;;;;;;5011605;28;20203;-64
2022/06/03 02:02:34;;;;;;;6.75;6.15;;;15.30;99.90;;;;;;5007709;28;20229;-64
2022/06/03 02:05:26;;;;;;;5.28;4.88;;;14.90;99.90;;;;;;5011831;28;20186;-65
2022/06/03 02:08:22;;;;;;;5.63;5.22;;;15.20;99.90;;;;;;5011211;28;20190;-65
2022/06/03 02:11:16;;;;;;;6.05;5.55;;;15.00;99.90;;;;;;5008257;28;20599;-63
2022/06/03 02:13:48;;;;;;;5.57;5.18;;;15.10;99.90;;;;;;5011473;28;20183;-63
2022/06/03 02:16:39;;;;;;;6.18;5.57;;;15.10;99.90;;;;;;5007270;28;20539;-65
2022/06/03 02:19:42;;;;;;;6.40;5.90;;;15.40;99.90;;;;;;5003340;28;20245;-63
2022/06/03 02:22:19;;;;;;;5.68;5.28;;;15.10;99.90;;;;;;4999698;28;20179;-65
2022/06/03 02:24:57;;;;;;;5.40;5.00;;;15.30;99.90;;;;;;5010723;28;20197;-64
2022/06/03 02:27:43;;;;;;;5.38;5.00;;;15.20;99.90;;;;;;5011017;28;20545;-64
2022/06/03 02:30:27;;;;;;;5.28;4.88;;;15.40;99.90;;;;;;5008792;28;20207;-64
2022/06/03 02:33:18;;;;;;;5.15;4.75;;;15.20;99.90;;;;;;5010660;28;20210;-64
2022/06/03 02:36:40;;;;;;;7.40;5.53;;;15.20;99.90;;;;;;5009016;28;20207;-64
2022/06/03 02:39:24;;;;;;;6.10;5.60;;;15.30;99.90;;;;;;4962278;28;20205;-64
2022/06/03 02:42:10;;;;;;;5.68;5.28;;;15.10;99.90;;;;;;4965154;28;20188;-64
2022/06/03 02:45:05;;;;;;;6.15;5.72;;;15.20;99.90;;;;;;5002646;28;20213;-65
2022/06/03 02:47:50;;;;;;;5.68;5.25;;;15.10;99.90;;;;;;5009325;28;20195;-65
2022/06/03 02:50:40;;;;;;;5.88;5.32;;;15.20;99.90;;;;;;5004845;28;20175;-64
2022/06/03 02:53:15;;;;;;;6.30;5.45;;;15.20;99.90;;;;;;5004878;28;20183;-64
2022/06/03 02:55:40;;;;;;;5.93;5.43;;;15.00;99.90;;;;;;5009639;28;20280;-64
2022/06/03 02:58:41;;;;;;;6.10;5.60;;;15.10;99.90;;;;;;5008798;28;20224;-64
2022/06/03 03:01:54;;;;;;;6.95;5.60;;;15.00;99.90;;;;;;5009486;28;20843;-64
2022/06/03 03:04:34;;;;;;;5.40;5.00;;;15.20;99.90;;;;;;5005341;28;20277;-64
2022/06/03 03:07:28;;;;;;;5.90;5.50;;;15.00;99.90;;;;;;5010512;28;20178;-66
2022/06/03 03:09:56;;;;;;;7.97;5.60;;;15.20;99.90;;;;;;5009079;28;20594;-66
2022/06/03 03:12:40;;;;;;;6.40;5.90;;;15.20;99.90;;;;;;5010452;28;20175;-64
2022/06/03 03:15:21;;;;;;;6.75;5.55;;;15.10;99.90;;;;;;4996033;28;20210;-64
2022/06/03 03:17:58;;;;;;;5.93;5.47;;;15.30;99.90;;;;;;5008973;28;20182;-66
2022/06/03 03:20:39;;;;;;;5.50;5.10;;;15.20;99.90;;;;;;5005714;28;20175;-64
2022/06/03 03:23:29;;;;;;;6.32;5.90;;;15.10;99.90;;;;;;5003917;28;20533;-63
2022/06/03 03:26:06;;;;;;;6.68;6.07;;;15.20;99.90;;;;;;5009220;28;20179;-64
2022/06/03 03:28:40;;;;;;;5.68;5.28;;;15.30;99.90;;;;;;5010538;28;20198;-64
2022/06/03 03:31:56;;;;;;;5.97;5.47;;;15.20;99.90;;;;;;5002711;28;20194;-64
2022/06/03 03:34:54;;;;;;;6.05;5.55;;;15.30;99.90;;;;;;5001317;28;20214;-64
2022/06/03 03:37:37;;;;;;;5.72;5.20;;;15.10;99.90;;;;;;5016076;28;20271;-66
2022/06/03 03:40:36;;;;;;;5.90;5.47;;;15.20;99.90;;;;;;5006353;28;20333;-64
2022/06/03 03:43:13;;;;;;;6.80;6.20;;;15.10;99.90;;;;;;5012211;28;20779;-64
2022/06/03 03:46:06;;;;;;;6.60;6.10;;;15.10;99.90;;;;;;5001414;28;20198;-63
2022/06/03 03:48:40;;;;;;;7.95;5.50;;;15.20;99.90;;;;;;5008578;28;20261;-64
2022/06/03 03:51:15;;;;;;;8.88;6.15;;;15.40;99.90;;;;;;5007066;28;20195;-66
2022/06/03 03:54:03;;;;;;;5.43;4.95;;;15.20;99.90;;;;;;5008244;28;20186;-64
2022/06/03 03:56:53;;;;;;;6.85;6.15;;;15.10;99.90;;;;;;5005881;28;20186;-67
2022/06/03 03:59:48;;;;;;;6.60;6.10;;;15.20;99.90;;;;;;5009433;28;20227;-64
2022/06/03 04:02:50;;;;;;;5.93;5.40;;;15.30;99.90;;;;;;4988946;28;20188;-64
2022/06/03 04:05:42;;;;;;;5.82;5.43;;;15.10;99.90;;;;;;5010413;28;20273;-64
2022/06/03 04:08:26;;;;;;;5.97;5.38;;;15.10;99.90;;;;;;5006487;28;21578;-64
2022/06/03 04:11:18;;;;;;;6.28;5.82;;;15.20;99.90;;;;;;5013144;28;20187;-64
2022/06/03 04:14:06;;;;;;;7.25;5.30;;;15.20;99.90;;;;;;5010733;28;20286;-64
2022/06/03 04:16:40;;;;;;;6.85;6.15;;;15.00;99.90;;;;;;5012566;28;20221;-66
2022/06/03 04:19:34;;;;;;;6.80;6.30;;;15.30;99.90;;;;;;5005348;28;20200;-66
2022/06/03 04:22:31;;;;;;;7.43;6.72;;;15.10;99.90;;;;;;5012749;28;20612;-64
2022/06/03 04:24:57;;;;;;;6.47;5.97;;;15.00;99.90;;;;;;5010549;28;20185;-64
2022/06/03 04:27:34;;;;;;;7.33;6.67;;;15.20;99.90;;;;;;5010917;28;20176;-64
2022/06/03 04:30:06;;;;;;;7.13;6.53;;;15.20;99.90;;;;;;5010118;28;20203;-65
2022/06/03 04:32:55;;;;;;;9.07;7.20;;;15.40;99.90;;;;;;5009314;28;20195;-67
2022/06/03 04:35:33;;;;;;;6.82;6.10;;;15.30;99.90;;;;;;5011266;28;20207;-64
2022/06/03 04:38:04;;;;;;;6.97;6.45;;;15.40;99.90;;;;;;5009025;28;20186;-67
2022/06/03 04:40:45;;;;;;;6.70;6.10;;;15.30;99.90;;;;;;5010063;28;20187;-64
2022/06/03 04:44:01;;;;;;;7.53;6.82;;;15.30;99.90;;;;;;5006852;28;20253;-64
2022/06/03 04:46:28;;;;;;;6.68;6.25;;;15.70;99.90;;;;;;5008202;28;20190;-64
2022/06/03 04:49:21;;;;;;;7.38;6.78;;;15.60;99.90;;;;;;5012942;28;20204;-65
2022/06/03 04:51:58;;;;;;;6.90;6.20;;;15.70;99.90;;;;;;5006011;28;20180;-64
2022/06/03 04:54:45;;;;;;;7.90;7.20;;;15.70;99.90;;;;;;5011437;28;20214;-65
2022/06/03 04:57:55;;;;;;;7.32;6.60;;;15.70;99.90;;;;;;5005043;28;20181;-64
2022/06/03 05:00:40;;;;;;;7.20;6.55;;;15.80;99.90;;;;;;5007030;28;20171;-64
2022/06/03 05:03:18;;;;;;;7.60;6.82;;;16.00;99.90;;;;;;5012046;28;20284;-64
2022/06/03 05:06:02;;;;;;;7.22;6.63;;;15.90;99.90;;;;;;5014741;28;20740;-63
2022/06/03 05:08:53;;;;;;;8.13;7.32;;;16.00;99.90;;;;;;5008296;28;20217;-64
2022/06/03 05:12:03;;;;;;;7.80;7.10;;;16.20;99.90;;;;;;5007406;28;20203;-64
2022/06/03 05:14:52;;;;;;;9.95;8.73;;;16.50;99.90;;;;;;5013988;28;20216;-65
2022/06/03 05:17:36;;;;;;;7.28;6.78;;;16.80;99.90;;;;;;5009897;28;20258;-64
2022/06/03 05:20:05;;;;;;;6.60;6.13;;;17.00;99.90;;;;;;4999699;28;20317;-64
2022/06/03 05:23:01;;;;;;;6.57;6.07;;;17.30;99.90;;;;;;5019285;28;20678;-64
2022/06/03 05:25:58;;;;;;;8.35;6.68;;;17.50;99.90;;;;;;5007310;28;20564;-66
2022/06/03 05:28:56;;;;;;;6.93;6.43;;;17.50;99.90;;;;;;5001563;28;20314;-66
2022/06/03 05:31:48;;;;;;;7.72;6.68;;;17.70;99.90;;;;;;5000259;28;20203;-66
2022/06/03 05:34:36;;;;;;;6.97;6.47;;;18.20;99.90;;;;;;5007181;28;20261;-64
2022/06/03 05:37:36;;;;;;;6.78;6.28;;;18.00;99.90;;;;;;5007753;28;20556;-64
2022/06/03 05:40:38;;;;;;;6.40;5.80;;;18.20;99.90;;;;;;4988798;28;20304;-65
2022/06/03 05:43:21;;;;;;;7.20;6.60;;;18.30;99.90;;;;;;5002751;28;20236;-64
2022/06/03 05:45:52;;;;;;;8.05;6.55;;;18.60;99.90;;;;;;5012110;28;20573;-66
2022/06/03 05:48:45;;;;;;;6.60;6.10;;;18.60;99.90;;;;;;5018051;28;20603;-64
2022/06/03 05:51:29;;;;;;;7.40;6.65;;;18.70;99.90;;;;;;5005199;28;20175;-64
2022/06/03 05:54:38;;;;;;;7.60;7.00;;;18.80;99.90;;;;;;5010849;28;20226;-65
2022/06/03 05:57:33;;;;;;;6.88;6.38;;;19.00;99.90;;;;;;5020263;28;20274;-65
2022/06/03 06:00:40;;;;;;;6.60;6.10;;;19.20;99.90;;;;;;5010711;28;20207;-64
2022/06/03 06:03:35;;;;;;;7.50;6.90;;;19.30;99.90;;;;;;5006473;28;20186;-64
2022/06/03 06:06:10;;;;;;;7.25;6.65;;;19.30;99.90;;;;;;4982220;28;20188;-69
2022/06/03 06:08:58;;;;;;;8.98;8.27;;;19.40;99.80;;;;;;5005244;28;20269;-62
2022/06/03 06:11:33;;;;;;;6.68;6.18;;;19.50;99.90;;;;;;5010013;28;20187;-62
2022/06/03 06:14:25;;;;;;;7.05;6.47;;;19.60;99.60;;;;;;5014386;28;20204;-63
2022/06/03 06:16:52;;;;;;;6.63;6.03;;;19.80;99.00;;;;;;5002143;28;20195;-63
2022/06/03 06:19:20;;;;;;;7.43;6.82;;;20.00;98.80;;;;;;5007295;28;20288;-63
2022/06/03 06:22:16;;;;;;;7.88;7.28;;;19.90;98.70;;;;;;5010188;28;20836;-63
2022/06/03 06:25:37;;;;;;;9.73;8.07;;;20.10;98.60;;;;;;5010216;28;20194;-62
2022/06/03 06:28:15;;;;;;;8.43;7.80;;;20.00;98.60;;;;;;4988040;28;20183;-63
2022/06/03 06:30:53;;;;;;;7.97;7.18;;;20.20;98.60;;;;;;5005737;28;20222;-63
2022/06/03 06:33:55;;;;;;;7.65;6.95;;;20.40;98.10;;;;;;5005694;28;20194;-63
2022/06/03 06:36:58;;;;;;;7.32;6.80;;;20.50;97.90;;;;;;5007387;28;20193;-63
2022/06/03 06:40:01;;;;;;;8.60;7.88;;;20.90;97.40;;;;;;5003834;28;20296;-63
2022/06/03 06:42:59;;;;;;;8.23;7.40;;;21.20;97.00;;;;;;5014258;28;20269;-63
2022/06/03 06:45:49;;;;;;;6.82;6.32;;;21.40;96.20;;;;;;5005663;28;20187;-63
2022/06/03 06:48:30;;;;;;;7.93;7.22;;;21.90;95.70;;;;;;5001884;28;20206;-63
2022/06/03 06:51:14;;;;;;;7.13;6.63;;;22.00;94.80;;;;;;5008209;28;20217;-62
2022/06/03 06:53:48;;;;;;;10.97;10.00;;;22.10;94.80;;;;;;5006946;28;20660;-63
2022/06/03 06:56:32;;;;;;;8.40;7.03;;;22.20;94.70;;;;;;5008652;28;20892;-63
2022/06/03 06:59:07;;;;;;;6.73;6.23;;;22.40;94.20;;;;;;5010222;28;20938;-63
2022/06/03 07:01:38;;;;;;;7.63;6.90;;;22.50;93.90;;;;;;5004753;28;20536;-63
2022/06/03 07:04:11;;;;;;;5.93;5.40;;;23.20;93.60;;;;;;5002288;28;20537;-64
2022/06/03 07:06:48;;;;;;;7.33;6.30;;;24.60;91.30;;;;;;5009050;28;20520;-63
2022/06/03 07:09:50;;;;;;;6.20;5.80;;;27.40;84.40;;;;;;5009035;28;20468;-63
2022/06/03 07:12:23;;;;;;;6.13;5.53;;;28.70;74.50;;;;;;5005405;28;20513;-64
2022/06/03 07:15:13;;;;;;;4.93;4.63;;;30.30;71.60;;;;;;5007136;28;20463;-64
2022/06/03 07:21:15;;;;;;;6.33;5.90;;;35.00;56.50;;;;;;4995478;28;20800;-64
2022/06/03 07:23:40;;;;;;;5.50;5.10;;;36.90;49.00;;;;;;5006365;28;20988;-64
2022/06/03 07:26:06;;;;;;;6.27;5.77;;;37.80;47.50;;;;;;5007683;28;20461;-64
2022/06/03 07:28:41;;;;;;;5.47;4.93;;;38.00;44.30;;;;;;5009355;28;20202;-64
2022/06/03 07:31:44;;;;;;;5.50;4.50;;;38.80;43.10;;;;;;5005632;28;20252;-64
2022/06/03 07:34:24;;;;;;;5.33;4.93;;;40.20;41.60;;;;;;5009144;28;20464;-64
2022/06/03 07:37:15;;;;;;;5.73;5.33;;;40.70;39.50;;;;;;5009126;28;20430;-64
2022/06/03 07:39:47;;;;;;;4.40;4.10;;;41.20;38.00;;;;;;5006007;28;20503;-64
2022/06/03 07:42:24;;;;;;;5.23;4.73;;;40.90;38.70;;;;;;5009663;28;20440;-64
2022/06/03 07:45:38;;;;;;;5.57;5.17;;;41.60;37.20;;;;;;5013546;28;20965;-64
2022/06/03 07:48:18;;;;;;;5.10;4.70;;;39.30;38.20;;;;;;5012711;28;20537;-64
2022/06/03 07:50:56;;;;;;;6.77;5.47;;;37.50;41.40;;;;;;5013013;28;20476;-64
2022/06/03 07:53:30;;;;;;;6.90;5.23;;;38.20;41.20;;;;;;5012401;28;20532;-64
2022/06/03 07:55:57;;;;;;;7.10;4.93;;;39.50;39.60;;;;;;5012780;28;20461;-64
2022/06/03 07:58:25;;;;;;;5.47;5.10;;;40.40;38.30;;;;;;5013042;28;20453;-64
2022/06/03 08:00:51;;;;;;;5.43;5.03;;;40.10;38.40;;;;;;5012354;28;20448;-64
2022/06/03 08:03:23;;;;;;;4.10;3.90;;;41.10;37.50;;;;;;5013140;28;20457;-64
2022/06/03 08:05:58;;;;;;;4.10;3.80;;;40.40;36.80;;;;;;5013225;28;20437;-64
2022/06/03 08:11:32;;;;;;;4.37;4.00;;;39.30;38.00;;;;;;5008532;28;20499;-64
2022/06/03 08:14:00;;;;;;;5.03;4.67;;;40.00;38.80;;;;;;5011081;28;20475;-64
2022/06/03 08:16:39;;;;;;;5.10;4.60;;;39.30;38.70;;;;;;5011308;28;20473;-64
2022/06/03 08:19:18;;;;;;;5.30;4.80;;;39.30;37.80;;;;;;5006825;28;20973;-64
2022/06/03 08:21:46;;;;;;;4.93;4.63;;;40.50;38.20;;;;;;5010319;28;20428;-64
2022/06/03 08:24:18;;;;;;;5.73;5.17;;;41.10;36.80;;;;;;5013248;28;20485;-64
2022/06/03 08:26:49;;;;;;;5.37;4.90;;;40.20;36.70;;;;;;5012260;28;20524;-64
2022/06/03 08:29:27;;;;;;;5.30;4.80;;;40.30;37.40;;;;;;5012673;28;20544;-64
2022/06/03 08:31:55;;;;;;;5.43;5.07;;;39.30;37.90;;;;;;5011521;28;20453;-64
2022/06/03 08:34:33;;;;;;;5.37;4.87;;;38.90;38.00;;;;;;5019067;28;20477;-64
2022/06/03 08:36:59;;;;;;;6.53;5.53;;;39.50;38.10;;;;;;5010632;28;20429;-64
2022/06/03 08:39:29;;;;;;;5.60;4.70;;;39.60;37.90;;;;;;5009463;28;20476;-64
2022/06/03 08:42:17;;;;;;;4.67;4.30;;;39.40;38.30;;;;;;5006936;28;20464;-64
2022/06/03 08:45:11;;;;;;;4.80;4.50;;;40.30;37.20;;;;;;5011825;28;20829;-64
2022/06/03 08:47:58;;;;;;;5.00;4.60;;;40.60;36.70;;;;;;4991666;28;20450;-64
2022/06/03 08:50:29;;;;;;;4.30;4.00;;;40.10;36.50;;;;;;5012631;28;20432;-64
2022/06/03 08:53:18;;;;;;;6.87;6.27;;;39.90;37.90;;;;;;5011222;28;20441;-64
2022/06/03 08:56:00;;;;;;;5.30;5.00;;;41.30;36.10;;;;;;5011520;28;20587;-64
2022/06/03 08:58:44;;;;;;;5.00;4.60;;;40.40;36.50;;;;;;5012691;28;20453;-64
2022/06/03 09:01:23;;;;;;;5.50;5.10;;;40.40;36.60;;;;;;5011806;28;20457;-64
2022/06/03 09:04:09;;;;;;;5.10;4.60;;;39.70;37.40;;;;;;5012461;28;20540;-64
2022/06/03 09:06:43;;;;;;;5.00;4.60;;;39.80;36.80;;;;;;5011387;28;20934;-65
2022/06/03 09:09:32;;;;;;;4.80;4.40;;;40.60;36.90;;;;;;5007846;28;20517;-64
2022/06/03 09:12:24;;;;;;;4.73;4.43;;;41.20;35.80;;;;;;5007403;28;20426;-65
2022/06/03 09:14:52;;;;;;;4.97;4.47;;;40.70;36.30;;;;;;5020372;28;20858;-64
2022/06/03 09:17:39;;;;;;;5.33;4.87;;;40.80;35.90;;;;;;5009018;28;20437;-64
2022/06/03 09:20:21;;;;;;;5.20;4.80;;;40.00;36.90;;;;;;5011125;28;20450;-64
2022/06/03 09:22:50;;;;;;;4.30;4.00;;;40.10;37.00;;;;;;5009691;28;20549;-64
2022/06/03 09:25:18;;;;;;;4.40;4.10;;;40.10;37.20;;;;;;5026197;28;21148;-64
2022/06/03 09:27:46;;;;;;;4.60;4.20;;;39.70;37.20;;;;;;5011666;28;20438;-64
2022/06/03 09:30:15;;;;;;;5.13;4.00;;;39.90;36.60;;;;;;5011499;28;20522;-64
2022/06/03 09:32:47;;;;;;;5.00;4.50;;;40.10;36.50;;;;;;5014247;28;20456;-64
2022/06/03 09:35:17;;;;;;;4.47;4.17;;;40.60;36.00;;;;;;5011389;28;20965;-64
2022/06/03 09:37:51;;;;;;;5.73;4.20;;;40.30;35.50;;;;;;5006125;28;20794;-64
2022/06/03 09:40:22;;;;;;;3.77;3.57;;;39.90;36.60;;;;;;5012269;28;20446;-64
2022/06/03 09:43:02;;;;;;;4.53;4.13;;;39.50;36.10;;;;;;5009188;28;20414;-66
2022/06/03 09:45:28;;;;;;;4.63;4.30;;;40.10;36.00;;;;;;5011058;28;20437;-66
2022/06/03 09:47:55;;;;;;;4.20;3.90;;;40.10;36.20;;;;;;5007773;28;20481;-66
2022/06/03 09:50:23;;;;;;;5.70;4.47;;;40.80;35.80;;;;;;5011151;28;20442;-66
2022/06/03 09:52:49;;;;;;;4.53;4.23;;;40.80;35.90;;;;;;5005757;28;20442;-65
2022/06/03 09:55:37;;;;;;;4.20;3.90;;;40.20;35.90;;;;;;5009996;28;20644;-64
2022/06/03 09:58:05;;;;;;;4.77;4.37;;;40.50;36.60;;;;;;5009929;28;20430;-64
2022/06/03 10:00:45;;;;;;;4.53;4.23;;;40.50;35.80;;;;;;5009664;28;20830;-66
2022/06/03 10:03:11;;;;;;;4.83;4.53;;;41.50;35.30;;;;;;5010085;28;20449;-66
2022/06/03 10:05:37;;;;;;;3.93;3.63;;;41.20;34.70;;;;;;5010765;28;20942;-66
2022/06/03 10:08:07;;;;;;;4.20;3.90;;;41.10;34.70;;;;;;5011853;28;20516;-65
2022/06/03 10:13:18;;;;;;;4.60;4.30;;;40.50;35.20;;;;;;5010428;28;20441;-66
2022/06/03 10:16:03;;;;;;;4.53;4.27;;;41.20;35.10;;;;;;5008701;28;20837;-66
2022/06/03 10:18:29;;;;;;;4.40;4.10;;;41.00;35.40;;;;;;5010099;28;20203;-66
2022/06/03 10:20:59;;;;;;;4.27;3.97;;;41.20;34.30;;;;;;5010143;28;20426;-66
2022/06/03 10:23:31;;;;;;;3.90;3.67;;;40.60;35.00;;;;;;5011071;28;20825;-65
2022/06/03 10:26:01;;;;;;;4.27;4.07;;;40.80;35.00;;;;;;5008963;28;20458;-66
2022/06/03 10:28:39;;;;;;;4.60;4.40;;;41.20;34.70;;;;;;5010225;28;20465;-65
2022/06/03 10:31:12;;;;;;;4.67;4.33;;;39.20;35.10;;;;;;5008712;28;20449;-64
2022/06/03 10:33:38;;;;;;;3.60;3.30;;;38.30;36.60;;;;;;5009112;28;20906;-63
2022/06/03 10:36:05;;;;;;;4.03;3.80;;;37.30;37.50;;;;;;5009337;28;20632;-63
2022/06/03 10:38:33;;;;;;;3.80;3.53;;;36.40;39.20;;;;;;5009988;28;20445;-63
2022/06/03 10:41:09;;;;;;;4.03;3.83;;;36.40;39.60;;;;;;5009534;28;20442;-64
2022/06/03 10:43:36;;;;;;;4.47;4.23;;;36.10;40.60;;;;;;5024586;28;20437;-63
2022/06/03 10:46:08;;;;;;;3.37;3.17;;;36.30;40.40;;;;;;5009291;28;20484;-63
2022/06/03 10:48:35;;;;;;;4.00;3.70;;;36.20;39.90;;;;;;5010498;28;20450;-63
2022/06/03 11:02:44;;;;;;;3.90;3.70;;;36.70;39.50;;;;;;5007470;28;20457;-63
2022/06/03 11:05:14;;;;;;;5.20;4.80;;;35.50;40.40;;;;;;5009635;28;20820;-63
2022/06/03 11:07:41;;;;;;;4.40;4.10;;;34.30;42.50;;;;;;5009493;28;20437;-63
2022/06/03 11:10:13;;;;;;;4.17;3.90;;;33.40;43.90;;;;;;5005231;28;20465;-66
2022/06/03 11:12:39;;;;;;;4.90;4.60;;;32.80;44.50;;;;;;5010015;28;20942;-63
2022/06/03 11:15:23;;;;;;;8.10;5.83;;;32.00;46.60;;;;;;5009376;28;20503;-63
2022/06/03 11:17:49;;;;;;;4.97;4.67;;;31.90;48.00;;;;;;5008156;28;20477;-63
2022/06/03 11:20:34;;;;;;;4.97;4.57;;;31.30;48.40;;;;;;5009751;28;20462;-63
2022/06/03 11:23:01;;;;;;;5.50;5.00;;;31.00;49.70;;;;;;5009085;28;20647;-63
2022/06/03 11:25:30;;;;;;;7.23;5.80;;;30.80;49.90;;;;;;5009640;28;20441;-63
2022/06/03 11:28:11;;;;;;;6.17;5.57;;;30.90;51.10;;;;;;5008915;28;20438;-63
2022/06/03 11:30:43;;;;;;;5.57;5.00;;;30.40;51.50;;;;;;5008409;28;20441;-63
2022/06/03 11:33:25;;;;;;;4.97;4.47;;;30.00;52.00;;;;;;5005946;28;20476;-63
2022/06/03 11:36:04;;;;;;;4.73;4.30;;;29.70;51.70;;;;;;5009039;28;20572;-63
2022/06/03 11:38:40;;;;;;;8.43;5.40;;;29.60;52.60;;;;;;5004364;28;20473;-63
2022/06/03 11:41:33;;;;;;;6.87;6.37;;;29.60;53.50;;;;;;5007116;28;20485;-63
2022/06/03 11:44:11;;;;;;;5.87;5.37;;;29.40;54.00;;;;;;5000719;28;20446;-63
2022/06/03 11:47:02;;;;;;;5.20;4.77;;;29.30;54.60;;;;;;5004914;28;20446;-63
2022/06/03 11:49:28;;;;;;;8.97;6.07;;;29.20;56.30;;;;;;5006907;28;20463;-63
2022/06/03 11:51:54;;;;;;;6.20;5.80;;;29.20;57.30;;;;;;5010282;28;20961;-64
2022/06/03 11:54:24;;;;;;;6.47;5.87;;;29.10;57.70;;;;;;5008925;28;20462;-63
2022/06/03 11:56:51;;;;;;;6.30;5.70;;;29.10;57.50;;;;;;5007323;28;20505;-63
2022/06/03 11:59:28;;;;;;;5.80;5.37;;;28.80;58.30;;;;;;5008845;28;20526;-63
2022/06/03 12:02:12;;;;;;;5.90;5.10;;;28.90;58.60;;;;;;5008034;28;20444;-63
2022/06/03 12:04:44;;;;;;;6.07;5.53;;;28.70;59.30;;;;;;5005906;28;20470;-63
2022/06/03 12:07:31;;;;;;;5.10;4.70;;;28.80;60.10;;;;;;5011344;28;20443;-63
2022/06/03 12:10:37;;;;;;;6.20;5.60;;;28.50;59.80;;;;;;5009276;28;20467;-63
2022/06/03 12:13:18;;;;;;;5.30;4.90;;;28.50;60.30;;;;;;5008433;28;20456;-63
2022/06/03 12:15:56;;;;;;;5.47;5.03;;;28.70;60.10;;;;;;5007072;28;20471;-63
2022/06/03 12:18:30;;;;;;;5.30;4.90;;;28.80;59.50;;;;;;5008894;28;20964;-63
2022/06/03 12:20:57;;;;;;;6.17;5.77;;;28.80;59.30;;;;;;5008456;28;20438;-63
2022/06/03 12:23:22;;;;;;;5.47;4.97;;;28.90;59.30;;;;;;5009279;28;20430;-63
2022/06/03 12:25:54;;;;;;;5.60;5.20;;;28.80;60.00;;;;;;5008063;28;20620;-63
2022/06/03 12:28:39;;;;;;;5.47;5.07;;;28.80;59.90;;;;;;5011485;28;20195;-63
2022/06/03 12:31:22;;;;;;;5.60;5.10;;;28.90;60.20;;;;;;5003411;28;20437;-63
2022/06/03 12:34:07;;;;;;;6.23;5.83;;;28.90;59.70;;;;;;5011705;28;20557;-63
2022/06/03 12:36:51;;;;;;;6.13;5.63;;;29.00;60.00;;;;;;5015211;28;20515;-63
2022/06/03 12:39:22;;;;;;;5.77;5.37;;;28.90;60.80;;;;;;5012839;28;20488;-63
2022/06/03 12:41:48;;;;;;;6.03;5.63;;;28.60;61.70;;;;;;5010334;28;20560;-63
2022/06/03 12:45:03;;;;;;;7.87;6.40;;;28.30;62.90;;;;;;5012408;28;20515;-63
2022/06/03 12:47:31;;;;;;;7.10;5.17;;;28.10;63.90;;;;;;5006178;28;20221;-63
2022/06/03 12:50:33;;;;;;;5.70;5.20;;;28.00;64.40;;;;;;5011200;28;20468;-63
2022/06/03 12:53:27;;;;;;;6.00;5.50;;;28.00;64.50;;;;;;5011022;28;20442;-63
2022/06/03 12:56:02;;;;;;;6.60;6.07;;;27.80;65.50;;;;;;5005318;28;20536;-63
2022/06/03 12:58:43;;;;;;;6.93;6.43;;;27.90;66.20;;;;;;5009317;28;20465;-63
2022/06/03 13:01:10;;;;;;;7.53;6.60;;;27.80;66.40;;;;;;5003762;28;20447;-63
2022/06/03 13:03:37;;;;;;;6.80;6.30;;;27.80;66.50;;;;;;5011898;28;20531;-63
2022/06/03 13:06:05;;;;;;;6.20;5.63;;;27.80;67.00;;;;;;5011265;28;20441;-63
2022/06/03 13:08:34;;;;;;;6.47;5.77;;;27.80;66.10;;;;;;5010749;28;20863;-62
2022/06/03 13:11:06;;;;;;;7.53;6.80;;;27.70;67.00;;;;;;5010831;28;20434;-63
2022/06/03 13:13:32;;;;;;;6.30;5.90;;;27.60;67.60;;;;;;5010109;28;20974;-63
2022/06/03 13:16:17;;;;;;;7.20;6.70;;;27.60;69.50;;;;;;5003604;28;20469;-63
2022/06/03 13:18:45;;;;;;;5.63;5.13;;;27.70;70.20;;;;;;5011416;28;20446;-63
2022/06/03 13:21:14;;;;;;;7.37;6.60;;;27.80;69.30;;;;;;5025166;28;20448;-63
2022/06/03 13:23:42;;;;;;;17.30;15.70;;;28.10;69.90;;;;;;5002238;28;21056;-63
2022/06/03 13:26:27;;;;;;;9.07;8.37;;;28.20;70.90;;;;;;5009809;28;20461;-63
2022/06/03 13:28:54;;;;;;;7.33;6.63;;;28.20;72.40;;;;;;5011115;28;20453;-63
2022/06/03 13:31:23;;;;;;;7.00;6.30;;;28.10;73.10;;;;;;5008215;28;20884;-63
2022/06/03 13:34:10;;;;;;;8.60;6.80;;;28.00;72.80;;;;;;5009007;28;20437;-63
2022/06/03 13:36:51;;;;;;;6.47;5.90;;;28.00;73.50;;;;;;5003848;28;20433;-63
2022/06/03 13:39:28;;;;;;;7.57;6.90;;;27.70;74.60;;;;;;4999954;28;20468;-63
2022/06/03 13:45:12;;;;;;;7.03;6.53;;;27.30;75.30;;;;;;5010813;28;20495;-63
2022/06/03 13:47:40;;;;;;;7.20;6.50;;;27.00;77.10;;;;;;5007778;28;20445;-63
2022/06/03 13:50:17;;;;;;;9.23;7.60;;;27.50;79.30;;;;;;5011054;28;21036;-63
2022/06/03 13:52:56;;;;;;;7.50;6.90;;;27.00;79.50;;;;;;5010139;28;20487;-63
2022/06/03 13:55:28;;;;;;;8.63;7.83;;;27.00;82.70;;;;;;5010288;28;20488;-63
2022/06/03 13:58:11;;;;;;;10.30;7.00;;;26.80;82.40;;;;;;5001453;28;20430;-63
2022/06/03 14:00:49;;;;;;;7.57;6.87;;;26.90;82.90;;;;;;5009482;28;20440;-63
2022/06/03 14:03:23;;;;;;;8.43;7.23;;;27.00;82.50;;;;;;5010676;28;20457;-63
2022/06/03 14:05:51;;;;;;;8.63;6.40;;;27.00;80.50;;;;;;5017843;28;20440;-63
2022/06/03 14:08:33;;;;;;;9.83;7.80;;;27.00;81.30;;;;;;5006646;28;20940;-63
2022/06/03 14:11:12;;;;;;;7.10;6.50;;;26.90;81.00;;;;;;5009548;28;20656;-63
2022/06/03 14:13:59;;;;;;;6.50;6.00;;;26.90;81.30;;;;;;5007030;28;20436;-63
2022/06/03 14:17:06;;;;;;;7.40;6.80;;;26.80;81.30;;;;;;5006237;28;20452;-63
2022/06/03 14:19:39;;;;;;;7.00;6.40;;;26.70;81.70;;;;;;4988392;28;21141;-63
2022/06/03 14:22:33;;;;;;;6.27;5.77;;;26.80;81.70;;;;;;5001634;28;20778;-63
2022/06/03 14:25:22;;;;;;;6.80;6.20;;;26.90;81.70;;;;;;5010127;28;20940;-63